createdAt,value
2023-05-15T00:11:13.342Z,1.50
2023-05-15T00:24:13.322Z,1.30
2023-05-15T00:37:13.342Z,1.60
2023-05-15T01:03:13.483Z,1.60
2023-05-15T01:16:13.389Z,1.50
2023-05-15T01:29:13.388Z,1.40
2023-05-15T01:42:13.392Z,1.50
2023-05-15T01:55:13.416Z,2.80
2023-05-15T02:08:13.418Z,2.90
2023-05-15T02:21:13.438Z,2.60
2023-05-15T02:34:13.445Z,2.30
2023-05-15T02:47:13.437Z,1.90
2023-05-15T03:00:13.468Z,1.80
2023-05-15T03:13:13.502Z,1.50
2023-05-15T03:26:13.523Z,1.30
2023-05-15T03:40:13.518Z,1.40
2023-05-15T03:54:13.539Z,1.20
2023-05-15T04:08:13.569Z,1.00
2023-05-15T04:22:13.570Z,1.10
2023-05-15T04:35:13.723Z,1.00
2023-05-15T04:48:13.620Z,1.00
2023-05-15T05:01:13.699Z,0.90
2023-05-15T05:14:13.681Z,0.90
2023-05-15T05:27:13.908Z,1.20
2023-05-15T05:40:13.756Z,1.50
2023-05-15T05:53:13.755Z,1.60
2023-05-15T06:06:13.797Z,2.60
2023-05-15T06:19:13.847Z,3.00
2023-05-15T06:32:13.907Z,2.80
2023-05-15T06:45:13.969Z,3.00
2023-05-15T06:58:13.819Z,2.60
2023-05-15T07:11:13.823Z,2.65
2023-05-15T07:24:13.826Z,2.40
2023-05-15T07:37:14.891Z,2.30
2023-05-15T07:50:13.881Z,2.00
2023-05-15T08:03:14.007Z,1.80
2023-05-15T08:16:33.966Z,1.90
2023-05-15T08:29:13.938Z,1.75
2023-05-15T08:42:14.002Z,1.70
2023-05-15T08:55:14.031Z,1.70
2023-05-15T09:08:14.063Z,1.40
2023-05-15T09:21:14.056Z,1.30
2023-05-15T09:34:14.080Z,1.40
2023-05-15T09:47:14.176Z,1.05
2023-05-15T10:00:14.136Z,1.10
2023-05-15T10:13:16.682Z,1.10
2023-05-15T10:26:14.263Z,1.10
2023-05-15T10:39:14.389Z,0.90
2023-05-15T10:52:14.232Z,0.90
2023-05-15T11:05:14.234Z,0.90
2023-05-15T11:18:14.344Z,0.90
2023-05-15T11:31:14.314Z,0.80
2023-05-15T11:44:14.302Z,0.90
2023-05-15T11:57:14.389Z,0.90
2023-05-15T12:10:14.405Z,0.90
2023-05-15T12:23:14.467Z,0.95
2023-05-15T12:36:14.496Z,0.80
2023-05-15T12:49:14.602Z,0.70
2023-05-15T13:02:14.581Z,0.60
2023-05-15T13:15:14.579Z,0.60
2023-05-15T13:28:14.606Z,0.70
2023-05-15T13:41:14.607Z,0.75
2023-05-15T13:54:14.600Z,0.70
2023-05-15T14:07:14.678Z,0.60
2023-05-15T14:20:14.656Z,0.50
2023-05-15T14:33:14.689Z,1.20
2023-05-15T14:46:14.766Z,1.10
2023-05-15T14:59:14.671Z,0.90
2023-05-15T15:12:14.725Z,1.10
2023-05-15T15:24:14.725Z,1.10
2023-05-15T15:37:14.729Z,1.20
2023-05-15T15:50:14.870Z,1.20
2023-05-15T16:03:14.946Z,1.15
2023-05-15T16:16:14.968Z,1.10
2023-05-15T16:29:15.059Z,1.20
2023-05-15T16:42:14.976Z,1.30
2023-05-15T16:55:14.990Z,1.10
2023-05-15T17:08:14.995Z,1.30
2023-05-15T17:21:15.008Z,1.10
2023-05-15T17:34:15.058Z,1.30
2023-05-15T17:47:15.086Z,1.10
2023-05-15T18:00:15.135Z,1.00
2023-05-15T18:13:15.148Z,1.40
2023-05-15T18:26:15.252Z,1.30
2023-05-15T18:39:15.235Z,1.20
2023-05-15T18:52:15.257Z,1.25
2023-05-15T19:05:30.225Z,1.10
2023-05-15T19:18:15.501Z,1.10
2023-05-15T19:31:27.743Z,1.10
2023-05-15T19:44:15.482Z,1.10
2023-05-15T19:57:15.520Z,1.00
2023-05-15T20:10:15.560Z,1.20
2023-05-15T20:23:15.593Z,1.10
2023-05-15T20:36:15.581Z,1.10
2023-05-15T20:49:15.598Z,1.00
2023-05-15T21:02:15.631Z,1.10
2023-05-15T21:15:15.661Z,0.95
2023-05-15T21:28:15.693Z,1.00
2023-05-15T21:41:15.816Z,1.00
2023-05-15T21:54:15.854Z,1.00
2023-05-15T22:07:15.873Z,0.90
2023-05-15T22:20:15.979Z,0.90
2023-05-15T22:33:16.050Z,0.90
2023-05-15T22:46:16.072Z,0.90
2023-05-15T22:59:16.040Z,0.80
2023-05-15T23:12:16.088Z,0.70
2023-05-15T23:25:16.086Z,0.70
2023-05-15T23:38:16.087Z,0.85
2023-05-15T23:51:16.187Z,0.80
